Time;durP1;ratioP1;P1;durP2;ratioP2;P2;SDS_P1;SDS_P2;PMS_P1;PMS_P2;Temp;Humidity;BMP_temperature;BMP_pressure;BME280_temperature;BME280_humidity;BME280_pressure;Samples;Min_cycle;Max_cycle;Signal;HPM_P1;HPM_P2
2023/09/08 00:00:25;;;;;;;7.97;4.70;;;;;;;;;;4966250;28;20298;-74
2023/09/08 00:02:51;;;;;;;6.83;4.10;;;;;;;;;;4968188;28;20314;-74
2023/09/08 00:05:16;;;;;;;6.68;4.28;;;;;;;;;;4969458;28;20021;-74
2023/09/08 00:07:42;;;;;;;7.73;4.60;;;;;;;;;;4963960;28;20482;-74
2023/09/08 00:10:08;;;;;;;7.20;4.75;;;;;;;;;;4967120;28;20756;-74
2023/09/08 00:12:33;;;;;;;10.85;4.75;;;;;;;;;;4968874;28;20777;-74
2023/09/08 00:14:58;;;;;;;6.07;3.80;;;;;;;;;;4963212;28;20030;-74
2023/09/08 00:17:23;;;;;;;5.57;3.63;;;;;;;;;;4973352;28;20321;-74
2023/09/08 00:19:48;;;;;;;8.03;4.67;;;;;;;;;;4955885;28;20116;-74
2023/09/08 00:22:14;;;;;;;14.53;4.60;;;;;;;;;;4970943;28;20547;-74
2023/09/08 00:24:39;;;;;;;14.13;4.37;;;;;;;;;;4964562;28;20301;-74
2023/09/08 00:27:04;;;;;;;11.57;4.20;;;;;;;;;;4948661;28;20271;-74
2023/09/08 00:29:29;;;;;;;11.70;4.88;;;;;;;;;;4963326;28;20607;-74
2023/09/08 00:31:54;;;;;;;9.15;4.43;;;;;;;;;;4968084;28;20135;-74
2023/09/08 00:34:20;;;;;;;8.27;4.53;;;;;;;;;;4965437;28;20086;-75
2023/09/08 00:36:45;;;;;;;11.03;4.50;;;;;;;;;;4954182;28;20027;-74
2023/09/08 00:39:10;;;;;;;8.40;4.37;;;;;;;;;;4968902;28;21081;-74
2023/09/08 00:41:35;;;;;;;13.97;4.70;;;;;;;;;;4965865;28;20290;-74
2023/09/08 00:44:00;;;;;;;7.55;4.55;;;;;;;;;;4968293;28;20329;-74
2023/09/08 00:46:27;;;;;;;8.87;4.77;;;;;;;;;;4966980;28;20516;-74
2023/09/08 00:48:52;;;;;;;6.38;4.03;;;;;;;;;;4968387;28;20285;-74
2023/09/08 00:51:18;;;;;;;10.40;4.95;;;;;;;;;;4966379;28;20041;-74
2023/09/08 00:53:43;;;;;;;6.18;4.45;;;;;;;;;;4967496;28;20445;-74
2023/09/08 00:56:09;;;;;;;13.17;5.23;;;;;;;;;;4968651;28;20026;-74
2023/09/08 00:58:34;;;;;;;7.35;4.60;;;;;;;;;;4968192;28;20806;-74
2023/09/08 01:01:00;;;;;;;8.38;4.25;;;;;;;;;;4973669;28;20025;-74
2023/09/08 01:03:25;;;;;;;10.00;4.63;;;;;;;;;;4973268;28;20018;-74
2023/09/08 01:05:50;;;;;;;9.30;4.60;;;;;;;;;;4969407;28;20273;-74
2023/09/08 01:08:16;;;;;;;9.98;5.03;;;;;;;;;;4968621;28;20033;-74
2023/09/08 01:10:42;;;;;;;7.93;4.43;;;;;;;;;;4953320;28;20070;-74
2023/09/08 01:13:07;;;;;;;11.48;4.78;;;;;;;;;;4973851;28;20479;-74
2023/09/08 01:15:32;;;;;;;9.55;4.63;;;;;;;;;;4967788;28;20030;-74
2023/09/08 01:17:57;;;;;;;7.33;4.37;;;;;;;;;;4969096;28;20112;-74
2023/09/08 01:20:25;;;;;;;13.17;4.63;;;;;;;;;;4969022;28;20031;-74
2023/09/08 01:23:09;;;;;;;10.07;4.70;;;;;;;;;;4971633;28;20035;-74
2023/09/08 01:25:37;;;;;;;11.45;4.78;;;;;;;;;;4968834;28;20022;-74
2023/09/08 01:28:03;;;;;;;7.15;4.45;;;;;;;;;;4974082;28;20449;-74
2023/09/08 01:30:32;;;;;;;8.93;4.65;;;;;;;;;;4955152;28;20355;-74
2023/09/08 01:32:57;;;;;;;5.47;3.95;;;;;;;;;;4949031;28;20090;-74
2023/09/08 01:35:23;;;;;;;19.40;5.45;;;;;;;;;;4968560;28;20031;-74
2023/09/08 01:37:49;;;;;;;10.98;4.65;;;;;;;;;;4956957;28;20434;-74
2023/09/08 01:40:14;;;;;;;7.97;4.57;;;;;;;;;;4970675;28;20034;-74
2023/09/08 01:42:39;;;;;;;10.05;5.30;;;;;;;;;;4963422;28;20155;-74
2023/09/08 01:45:06;;;;;;;7.95;4.38;;;;;;;;;;4976145;28;20028;-74
2023/09/08 01:47:31;;;;;;;11.07;5.00;;;;;;;;;;4963058;28;20022;-74
2023/09/08 01:49:56;;;;;;;10.53;4.53;;;;;;;;;;4968288;28;20019;-74
2023/09/08 01:52:21;;;;;;;12.93;5.28;;;;;;;;;;4971493;28;20751;-74
2023/09/08 01:54:47;;;;;;;6.87;4.33;;;;;;;;;;4966573;28;20031;-74
2023/09/08 01:57:12;;;;;;;9.17;5.10;;;;;;;;;;4963761;28;20270;-74
2023/09/08 01:59:37;;;;;;;8.90;4.65;;;;;;;;;;4967837;28;20266;-74
2023/09/08 02:02:03;;;;;;;17.90;5.27;;;;;;;;;;4961046;28;20035;-74
2023/09/08 02:04:28;;;;;;;9.00;5.10;;;;;;;;;;4964848;28;20740;-74
2023/09/08 02:06:53;;;;;;;8.02;4.70;;;;;;;;;;4964562;28;20101;-74
2023/09/08 02:09:18;;;;;;;11.47;5.73;;;;;;;;;;4942108;28;20371;-74
2023/09/08 02:11:44;;;;;;;9.40;4.63;;;;;;;;;;4960505;28;20014;-74
2023/09/08 02:14:09;;;;;;;6.73;4.73;;;;;;;;;;4972686;28;20269;-74
2023/09/08 02:16:34;;;;;;;8.93;4.93;;;;;;;;;;4967176;28;20316;-74
2023/09/08 02:18:59;;;;;;;7.30;4.43;;;;;;;;;;4967388;28;20030;-74
2023/09/08 02:21:24;;;;;;;9.90;5.03;;;;;;;;;;4956033;28;20761;-74
2023/09/08 02:23:49;;;;;;;14.00;4.97;;;;;;;;;;4980384;28;20084;-74
2023/09/08 02:26:15;;;;;;;7.97;5.40;;;;;;;;;;4975500;28;20281;-74
2023/09/08 02:28:40;;;;;;;11.30;5.40;;;;;;;;;;4974391;28;20270;-74
2023/09/08 02:31:05;;;;;;;9.67;4.30;;;;;;;;;;4964053;28;20031;-74
2023/09/08 02:33:30;;;;;;;7.97;4.97;;;;;;;;;;4963516;28;20311;-74
2023/09/08 02:36:00;;;;;;;8.10;5.00;;;;;;;;;;4970728;28;20019;-74
2023/09/08 02:38:26;;;;;;;13.20;5.40;;;;;;;;;;4952148;28;20277;-74
2023/09/08 02:40:51;;;;;;;8.23;4.87;;;;;;;;;;4968411;28;20041;-75
2023/09/08 02:43:16;;;;;;;9.40;5.37;;;;;;;;;;4968852;28;20285;-74
2023/09/08 02:45:41;;;;;;;9.73;5.40;;;;;;;;;;4964076;28;20023;-74
2023/09/08 02:48:06;;;;;;;11.20;5.57;;;;;;;;;;4963594;28;20277;-74
2023/09/08 02:50:31;;;;;;;10.40;5.07;;;;;;;;;;4970281;28;20034;-74
2023/09/08 02:52:57;;;;;;;11.50;5.30;;;;;;;;;;4966868;28;20081;-74
2023/09/08 02:55:22;;;;;;;9.43;5.83;;;;;;;;;;4958444;28;20030;-74
2023/09/08 02:57:47;;;;;;;7.73;5.00;;;;;;;;;;4961220;28;20358;-74
2023/09/08 03:00:12;;;;;;;10.13;4.90;;;;;;;;;;4967418;28;20787;-74
2023/09/08 03:02:38;;;;;;;10.85;5.85;;;;;;;;;;4968306;28;20528;-74
2023/09/08 03:05:03;;;;;;;16.87;5.57;;;;;;;;;;4959704;28;20381;-74
2023/09/08 03:07:28;;;;;;;12.50;5.65;;;;;;;;;;4961362;28;20836;-74
2023/09/08 03:09:53;;;;;;;9.18;5.82;;;;;;;;;;4960328;28;20033;-74
2023/09/08 03:12:18;;;;;;;10.00;5.00;;;;;;;;;;4969944;28;20501;-74
2023/09/08 03:14:44;;;;;;;7.83;4.83;;;;;;;;;;4976376;28;20493;-73
2023/09/08 03:17:10;;;;;;;10.20;5.55;;;;;;;;;;4968875;28;20281;-74
2023/09/08 03:19:35;;;;;;;8.70;5.55;;;;;;;;;;4967733;28;20065;-74
2023/09/08 03:22:00;;;;;;;12.13;5.20;;;;;;;;;;4972425;28;20027;-74
2023/09/08 03:24:25;;;;;;;12.30;6.13;;;;;;;;;;4971311;28;20066;-74
2023/09/08 03:26:50;;;;;;;8.70;5.70;;;;;;;;;;4969157;28;20030;-74
2023/09/08 03:29:16;;;;;;;10.27;5.40;;;;;;;;;;4962468;28;20301;-74
2023/09/08 03:31:41;;;;;;;7.50;5.38;;;;;;;;;;4967549;28;20362;-74
2023/09/08 03:34:06;;;;;;;11.48;5.90;;;;;;;;;;4973104;28;20065;-74
2023/09/08 03:36:35;;;;;;;13.82;6.25;;;;;;;;;;4969033;28;20045;-74
2023/09/08 03:39:00;;;;;;;8.02;5.25;;;;;;;;;;4961470;28;20031;-74
2023/09/08 03:41:25;;;;;;;12.60;5.63;;;;;;;;;;4972376;28;20019;-74
2023/09/08 03:43:51;;;;;;;8.50;5.50;;;;;;;;;;4967388;28;20030;-74
2023/09/08 03:46:16;;;;;;;9.65;5.63;;;;;;;;;;4970323;28;20628;-74
2023/09/08 03:48:41;;;;;;;11.43;5.50;;;;;;;;;;4966167;28;20367;-74
2023/09/08 03:51:06;;;;;;;10.80;5.90;;;;;;;;;;4970264;28;20321;-74
2023/09/08 03:53:31;;;;;;;11.93;5.87;;;;;;;;;;4969255;28;20146;-74
2023/09/08 03:55:57;;;;;;;16.03;6.40;;;;;;;;;;4962759;28;20274;-74
2023/09/08 03:58:22;;;;;;;11.23;6.40;;;;;;;;;;4965774;28;20251;-74
2023/09/08 04:00:47;;;;;;;12.17;5.77;;;;;;;;;;4973527;28;20428;-74
2023/09/08 04:03:12;;;;;;;8.77;5.53;;;;;;;;;;4977296;28;20278;-74
2023/09/08 04:05:37;;;;;;;9.60;5.77;;;;;;;;;;4970432;28;20274;-74
2023/09/08 04:08:03;;;;;;;10.03;5.97;;;;;;;;;;4970733;28;20362;-74
2023/09/08 04:10:28;;;;;;;12.40;5.80;;;;;;;;;;4966225;28;20785;-74
2023/09/08 04:12:53;;;;;;;9.52;6.53;;;;;;;;;;4969830;28;20046;-74
2023/09/08 04:15:18;;;;;;;9.68;6.18;;;;;;;;;;4972316;28;20029;-74
2023/09/08 04:17:45;;;;;;;13.52;5.95;;;;;;;;;;4965292;28;20089;-74
2023/09/08 04:20:10;;;;;;;9.15;5.60;;;;;;;;;;4966015;28;20023;-74
2023/09/08 04:22:35;;;;;;;9.38;5.38;;;;;;;;;;4967813;28;20050;-74
2023/09/08 04:25:01;;;;;;;12.65;6.15;;;;;;;;;;4969091;28;20043;-74
2023/09/08 04:27:26;;;;;;;12.07;5.97;;;;;;;;;;4968643;28;20066;-74
2023/09/08 04:29:52;;;;;;;15.85;6.03;;;;;;;;;;4954063;28;20034;-74
2023/09/08 04:32:17;;;;;;;8.93;6.15;;;;;;;;;;4967211;28;20026;-74
2023/09/08 04:34:42;;;;;;;11.00;6.10;;;;;;;;;;4967939;28;20080;-74
2023/09/08 04:37:08;;;;;;;10.60;6.00;;;;;;;;;;4970649;28;20300;-74
2023/09/08 04:39:33;;;;;;;12.55;5.07;;;;;;;;;;4965883;28;20022;-74
2023/09/08 04:41:59;;;;;;;11.05;6.25;;;;;;;;;;4965623;28;20019;-74
2023/09/08 04:44:24;;;;;;;10.40;5.97;;;;;;;;;;4965826;28;20029;-74
2023/09/08 04:46:49;;;;;;;9.30;6.03;;;;;;;;;;4967750;28;20030;-74
2023/09/08 04:49:14;;;;;;;11.00;6.45;;;;;;;;;;4961937;28;20119;-74
2023/09/08 04:51:40;;;;;;;10.27;6.60;;;;;;;;;;4969022;28;20058;-74
2023/09/08 04:54:05;;;;;;;11.07;5.57;;;;;;;;;;4971596;28;20281;-74
2023/09/08 04:56:30;;;;;;;13.82;5.88;;;;;;;;;;4969260;28;20822;-74
2023/09/08 04:58:55;;;;;;;11.27;6.15;;;;;;;;;;4964538;28;20501;-74
2023/09/08 05:01:21;;;;;;;11.57;6.60;;;;;;;;;;4966991;28;20096;-74
2023/09/08 05:03:46;;;;;;;9.47;6.13;;;;;;;;;;4971321;28;20082;-74
2023/09/08 05:06:11;;;;;;;10.10;6.50;;;;;;;;;;4970801;28;20274;-74
2023/09/08 05:08:36;;;;;;;14.15;5.97;;;;;;;;;;4968910;28;20278;-74
2023/09/08 05:11:01;;;;;;;12.70;6.32;;;;;;;;;;4967958;28;20019;-74
2023/09/08 05:13:26;;;;;;;14.93;6.67;;;;;;;;;;4970414;28;20053;-73
2023/09/08 05:15:59;;;;;;;9.07;6.07;;;;;;;;;;4972053;28;20371;-74
2023/09/08 05:18:25;;;;;;;16.67;6.40;;;;;;;;;;4968059;28;20290;-74
2023/09/08 05:20:50;;;;;;;11.65;6.22;;;;;;;;;;4968774;28;20045;-74
2023/09/08 05:23:15;;;;;;;11.47;6.87;;;;;;;;;;4971250;28;20038;-74
2023/09/08 05:25:41;;;;;;;12.23;6.93;;;;;;;;;;4954850;28;20313;-74
2023/09/08 05:28:06;;;;;;;10.02;5.82;;;;;;;;;;4968079;28;20265;-74
2023/09/08 05:30:32;;;;;;;10.07;5.90;;;;;;;;;;4968485;28;20057;-74
2023/09/08 05:32:57;;;;;;;14.63;6.90;;;;;;;;;;4968316;28;20289;-74
2023/09/08 05:35:22;;;;;;;12.48;6.30;;;;;;;;;;4972189;28;20313;-74
2023/09/08 05:37:47;;;;;;;15.23;6.37;;;;;;;;;;4962048;28;20031;-74
2023/09/08 05:40:13;;;;;;;18.70;6.10;;;;;;;;;;4968946;28;20282;-74
2023/09/08 05:42:38;;;;;;;10.47;6.10;;;;;;;;;;4966948;28;20762;-74
2023/09/08 05:45:03;;;;;;;13.83;5.77;;;;;;;;;;4946244;28;20259;-74
2023/09/08 05:47:28;;;;;;;9.90;6.00;;;;;;;;;;4967629;28;20282;-74
2023/09/08 05:49:53;;;;;;;8.37;5.60;;;;;;;;;;4963069;28;20029;-74
2023/09/08 05:52:19;;;;;;;11.03;5.90;;;;;;;;;;4963800;28;20274;-73
2023/09/08 05:54:44;;;;;;;11.37;5.10;;;;;;;;;;4961919;28;20757;-74
2023/09/08 05:57:09;;;;;;;14.02;6.63;;;;;;;;;;4968651;28;20138;-74
2023/09/08 05:59:34;;;;;;;9.67;5.60;;;;;;;;;;4951573;28;20023;-74
2023/09/08 06:01:59;;;;;;;10.10;5.67;;;;;;;;;;4965932;28;20365;-74
2023/09/08 06:04:24;;;;;;;7.93;5.23;;;;;;;;;;4966462;28;20038;-73
2023/09/08 06:06:50;;;;;;;10.73;6.17;;;;;;;;;;4943982;28;20266;-74
2023/09/08 06:09:16;;;;;;;8.53;5.40;;;;;;;;;;4971243;28;20438;-74
2023/09/08 06:11:41;;;;;;;15.23;6.07;;;;;;;;;;4945184;28;20286;-73
2023/09/08 06:14:06;;;;;;;12.13;5.93;;;;;;;;;;4966056;28;20021;-74
2023/09/08 06:16:32;;;;;;;8.93;5.50;;;;;;;;;;4965776;28;20046;-74
2023/09/08 06:18:57;;;;;;;12.07;4.95;;;;;;;;;;4971430;28;20098;-74
2023/09/08 06:21:22;;;;;;;10.38;5.78;;;;;;;;;;4967915;28;20027;-73
2023/09/08 06:23:48;;;;;;;9.65;5.82;;;;;;;;;;4967086;28;20382;-74
2023/09/08 06:26:13;;;;;;;11.23;5.90;;;;;;;;;;4957148;28;20453;-74
2023/09/08 06:28:41;;;;;;;14.60;5.67;;;;;;;;;;4966675;28;20018;-74
2023/09/08 06:31:06;;;;;;;11.48;5.55;;;;;;;;;;4970581;28;20309;-74
2023/09/08 06:33:32;;;;;;;9.00;5.10;;;;;;;;;;4960325;28;20031;-73
2023/09/08 06:35:57;;;;;;;7.67;5.13;;;;;;;;;;4964479;28;20385;-73
2023/09/08 06:38:22;;;;;;;8.47;4.77;;;;;;;;;;4959942;28;20026;-74
2023/09/08 06:40:48;;;;;;;10.07;5.20;;;;;;;;;;4966614;28;20294;-74
2023/09/08 06:43:13;;;;;;;9.88;4.47;;;;;;;;;;4967873;28;20077;-74
2023/09/08 06:45:39;;;;;;;8.13;4.82;;;;;;;;;;4961956;28;20038;-74
2023/09/08 06:48:05;;;;;;;12.20;4.82;;;;;;;;;;4960910;28;20348;-74
2023/09/08 06:50:30;;;;;;;13.10;4.85;;;;;;;;;;4971481;28;20265;-74
2023/09/08 06:52:55;;;;;;;8.53;4.97;;;;;;;;;;4972413;28;20460;-74
2023/09/08 06:55:20;;;;;;;6.30;4.43;;;;;;;;;;4965788;28;20029;-74
2023/09/08 06:57:46;;;;;;;6.83;4.17;;;;;;;;;;4968731;28;20021;-74
2023/09/08 07:00:11;;;;;;;11.43;5.32;;;;;;;;;;4972497;28;20846;-74
2023/09/08 07:02:37;;;;;;;7.13;4.43;;;;;;;;;;4971479;28;20050;-74
2023/09/08 07:05:07;;;;;;;11.70;4.25;;;;;;;;;;4971939;28;20026;-74
2023/09/08 07:07:32;;;;;;;6.95;4.40;;;;;;;;;;4969529;28;20513;-74
2023/09/08 07:09:58;;;;;;;9.43;4.07;;;;;;;;;;4970254;28;20023;-75
2023/09/08 07:12:23;;;;;;;10.40;3.87;;;;;;;;;;4971623;28;20023;-76
2023/09/08 07:14:48;;;;;;;10.87;3.93;;;;;;;;;;4970208;28;20280;-75
2023/09/08 07:17:13;;;;;;;8.87;3.90;;;;;;;;;;4960686;28;20023;-75
2023/09/08 07:19:41;;;;;;;9.67;3.90;;;;;;;;;;4966034;28;20045;-74
2023/09/08 07:22:06;;;;;;;9.38;3.88;;;;;;;;;;4967089;28;20019;-74
2023/09/08 07:24:32;;;;;;;9.20;4.50;;;;;;;;;;4962870;28;20673;-74
2023/09/08 07:26:57;;;;;;;5.97;4.20;;;;;;;;;;4972841;28;20031;-75
2023/09/08 07:29:22;;;;;;;7.43;3.83;;;;;;;;;;4964176;28;20018;-75
2023/09/08 07:31:47;;;;;;;6.27;3.37;;;;;;;;;;4972109;28;20285;-75
2023/09/08 07:34:12;;;;;;;7.73;3.80;;;;;;;;;;4971253;28;20061;-75
2023/09/08 07:36:38;;;;;;;6.07;3.30;;;;;;;;;;4972154;28;20617;-75
2023/09/08 07:39:03;;;;;;;5.57;3.80;;;;;;;;;;4969604;28;20019;-75
2023/09/08 07:41:28;;;;;;;7.05;4.20;;;;;;;;;;4971154;28;20368;-75
2023/09/08 07:43:53;;;;;;;7.93;3.37;;;;;;;;;;4967172;28;20370;-75
2023/09/08 07:46:19;;;;;;;8.13;3.67;;;;;;;;;;4967066;28;20118;-75
2023/09/08 07:48:44;;;;;;;5.43;3.25;;;;;;;;;;4968996;28;20027;-75
2023/09/08 07:51:09;;;;;;;9.73;4.15;;;;;;;;;;4972230;28;20053;-75
2023/09/08 07:53:34;;;;;;;5.13;3.63;;;;;;;;;;4969918;28;20033;-75
2023/09/08 07:56:00;;;;;;;6.30;3.37;;;;;;;;;;4954190;28;20027;-75
2023/09/08 07:58:26;;;;;;;10.70;4.22;;;;;;;;;;4973543;28;20058;-75
2023/09/08 08:00:51;;;;;;;6.23;3.30;;;;;;;;;;4966018;28;20023;-75
2023/09/08 08:03:16;;;;;;;11.00;3.33;;;;;;;;;;4965382;28;20026;-75
2023/09/08 08:05:42;;;;;;;7.27;3.50;;;;;;;;;;4969120;28;20309;-75
2023/09/08 08:08:09;;;;;;;3.83;2.70;;;;;;;;;;4966388;28;20090;-75
2023/09/08 08:10:34;;;;;;;8.02;3.20;;;;;;;;;;4980561;28;20084;-75
2023/09/08 08:12:59;;;;;;;13.03;3.13;;;;;;;;;;4974913;28;20016;-75
2023/09/08 08:15:34;;;;;;;4.17;3.03;;;;;;;;;;4968628;28;20389;-74
2023/09/08 08:17:59;;;;;;;16.13;3.58;;;;;;;;;;4944447;28;20015;-74
2023/09/08 08:20:24;;;;;;;5.13;2.83;;;;;;;;;;4965134;28;20042;-75
2023/09/08 08:22:50;;;;;;;5.45;3.25;;;;;;;;;;4965364;28;20014;-74
2023/09/08 08:25:15;;;;;;;7.03;3.20;;;;;;;;;;4959961;28;20061;-74
2023/09/08 08:27:41;;;;;;;5.53;3.30;;;;;;;;;;4963810;28;20301;-74
2023/09/08 08:30:06;;;;;;;5.43;2.92;;;;;;;;;;4965270;28;20014;-75
2023/09/08 08:32:32;;;;;;;3.50;2.58;;;;;;;;;;4966433;28;20015;-75
2023/09/08 08:34:58;;;;;;;5.63;3.03;;;;;;;;;;4963233;28;20020;-74
2023/09/08 08:37:23;;;;;;;7.70;3.35;;;;;;;;;;4964941;28;20368;-75
2023/09/08 08:39:49;;;;;;;5.38;3.50;;;;;;;;;;4967320;28;20042;-75
2023/09/08 08:42:14;;;;;;;4.93;2.53;;;;;;;;;;4967221;28;20490;-74
2023/09/08 08:44:39;;;;;;;4.50;2.27;;;;;;;;;;4968621;28;20278;-74
2023/09/08 08:47:06;;;;;;;6.00;1.85;;;;;;;;;;4959699;28;20015;-74
2023/09/08 08:49:32;;;;;;;4.50;2.58;;;;;;;;;;4965798;28;20031;-74
2023/09/08 08:51:58;;;;;;;5.32;3.58;;;;;;;;;;4971300;28;20019;-74
2023/09/08 08:54:24;;;;;;;10.13;3.05;;;;;;;;;;4954690;28;20023;-73
2023/09/08 08:56:49;;;;;;;5.20;3.08;;;;;;;;;;4964314;28;20470;-74
2023/09/08 08:59:14;;;;;;;5.70;3.63;;;;;;;;;;4970068;28;20077;-74
2023/09/08 09:01:41;;;;;;;4.78;3.10;;;;;;;;;;4972055;28;20019;-74
2023/09/08 09:04:06;;;;;;;3.83;1.90;;;;;;;;;;4971533;28;20088;-74
2023/09/08 09:06:32;;;;;;;11.45;3.05;;;;;;;;;;4964968;28;20023;-73
2023/09/08 09:08:58;;;;;;;6.82;3.38;;;;;;;;;;4964377;28;20025;-74
2023/09/08 09:11:23;;;;;;;6.05;3.90;;;;;;;;;;4964267;28;20023;-74
2023/09/08 09:13:48;;;;;;;6.93;3.80;;;;;;;;;;4964308;28;20047;-74
2023/09/08 09:16:13;;;;;;;9.63;4.23;;;;;;;;;;4969255;28;20033;-73
2023/09/08 09:18:55;;;;;;;6.43;3.50;;;;;;;;;;4960766;28;20369;-74
2023/09/08 09:21:21;;;;;;;8.73;3.45;;;;;;;;;;4963693;28;20646;-73
2023/09/08 09:23:46;;;;;;;6.47;3.60;;;;;;;;;;4962476;28;20027;-73
2023/09/08 09:26:22;;;;;;;5.90;3.35;;;;;;;;;;4967290;28;20106;-74
2023/09/08 09:28:48;;;;;;;16.27;3.03;;;;;;;;;;4961929;28;20544;-73
2023/09/08 09:31:13;;;;;;;4.28;2.47;;;;;;;;;;4958304;28;20382;-74
2023/09/08 09:33:38;;;;;;;11.82;3.78;;;;;;;;;;4963237;28;20093;-74
2023/09/08 09:36:03;;;;;;;5.73;3.77;;;;;;;;;;4961464;28;20029;-74
2023/09/08 09:38:29;;;;;;;6.50;3.67;;;;;;;;;;4965094;28;20023;-74
2023/09/08 09:40:54;;;;;;;10.05;3.85;;;;;;;;;;4959343;28;20341;-74
2023/09/08 09:43:20;;;;;;;8.43;3.28;;;;;;;;;;4962075;28;20035;-74
2023/09/08 09:45:46;;;;;;;8.82;3.83;;;;;;;;;;4959481;28;20025;-74
2023/09/08 09:48:11;;;;;;;8.17;3.40;;;;;;;;;;4967152;28;20102;-74
2023/09/08 09:50:39;;;;;;;8.40;3.65;;;;;;;;;;4969929;28;20298;-74
2023/09/08 09:53:12;;;;;;;4.70;2.75;;;;;;;;;;4968778;28;20117;-74
2023/09/08 09:55:40;;;;;;;7.55;3.40;;;;;;;;;;4961002;28;20098;-74
2023/09/08 09:58:06;;;;;;;8.63;4.00;;;;;;;;;;4970394;28;20038;-74
2023/09/08 10:00:33;;;;;;;10.57;3.80;;;;;;;;;;4972685;28;20026;-74
2023/09/08 10:02:58;;;;;;;8.00;3.75;;;;;;;;;;4965305;28;20014;-74
2023/09/08 10:05:24;;;;;;;11.70;4.15;;;;;;;;;;4964418;28;20101;-74
2023/09/08 10:07:49;;;;;;;4.97;2.88;;;;;;;;;;4959944;28;20030;-74
2023/09/08 10:10:15;;;;;;;7.03;3.00;;;;;;;;;;4963327;28;20038;-74
2023/09/08 10:12:43;;;;;;;5.45;2.92;;;;;;;;;;4964901;28;20022;-74
2023/09/08 10:15:10;;;;;;;5.10;2.65;;;;;;;;;;4968449;28;20436;-74
2023/09/08 10:17:36;;;;;;;5.30;3.35;;;;;;;;;;4962994;28;20026;-74
2023/09/08 10:20:08;;;;;;;2.85;2.03;;;;;;;;;;4967362;28;20019;-73
2023/09/08 10:22:36;;;;;;;4.78;3.10;;;;;;;;;;4966570;28;20027;-74
2023/09/08 10:25:03;;;;;;;6.53;3.40;;;;;;;;;;4968129;28;20050;-74
2023/09/08 10:27:28;;;;;;;7.57;3.17;;;;;;;;;;4963755;28;20014;-74
2023/09/08 10:29:54;;;;;;;5.85;3.35;;;;;;;;;;4954918;28;20042;-74
2023/09/08 10:32:20;;;;;;;4.40;2.78;;;;;;;;;;4968337;28;20038;-74
2023/09/08 10:34:46;;;;;;;6.40;3.75;;;;;;;;;;4958669;28;20014;-74
2023/09/08 10:37:20;;;;;;;7.22;3.58;;;;;;;;;;4966371;28;20022;-74
2023/09/08 10:39:45;;;;;;;10.38;3.53;;;;;;;;;;4962223;28;20265;-73
2023/09/08 10:42:16;;;;;;;9.33;3.97;;;;;;;;;;4963984;28;20030;-73
2023/09/08 10:44:47;;;;;;;9.65;3.65;;;;;;;;;;4968926;28;20310;-73
2023/09/08 10:47:12;;;;;;;5.65;3.88;;;;;;;;;;4962113;28;20016;-73
2023/09/08 10:49:38;;;;;;;9.73;3.33;;;;;;;;;;4966429;28;20029;-73
2023/09/08 10:52:10;;;;;;;7.18;3.40;;;;;;;;;;4966780;28;20026;-73
2023/09/08 10:54:47;;;;;;;2.28;1.65;;;;;;;;;;4967866;28;20533;-74
2023/09/08 10:57:15;;;;;;;11.00;3.33;;;;;;;;;;4967352;28;20031;-73
2023/09/08 10:59:54;;;;;;;9.98;4.07;;;;;;;;;;4973249;28;20501;-73
2023/09/08 11:02:32;;;;;;;9.75;3.15;;;;;;;;;;4951941;28;20505;-73
2023/09/08 11:04:58;;;;;;;3.85;2.75;;;;;;;;;;4969903;28;20466;-73
2023/09/08 11:07:24;;;;;;;10.90;2.97;;;;;;;;;;4972579;28;20038;-73
2023/09/08 11:09:49;;;;;;;6.07;4.00;;;;;;;;;;4969482;28;20052;-73
2023/09/08 11:12:16;;;;;;;5.37;3.53;;;;;;;;;;4969449;28;20062;-73
2023/09/08 11:14:41;;;;;;;8.05;3.75;;;;;;;;;;4964600;28;20023;-73
2023/09/08 11:17:06;;;;;;;6.90;2.83;;;;;;;;;;4965433;28;20074;-73
2023/09/08 11:19:47;;;;;;;5.83;3.70;;;;;;;;;;4966065;28;20027;-73
2023/09/08 11:22:13;;;;;;;7.72;3.85;;;;;;;;;;4968786;28;20018;-73
2023/09/08 11:24:39;;;;;;;6.15;3.47;;;;;;;;;;4969467;28;20026;-73
2023/09/08 11:27:04;;;;;;;10.55;3.40;;;;;;;;;;4970370;28;20073;-73
2023/09/08 11:29:29;;;;;;;7.53;3.78;;;;;;;;;;4966408;28;20076;-73
2023/09/08 11:31:54;;;;;;;10.63;3.90;;;;;;;;;;4970600;28;20030;-73
2023/09/08 11:34:21;;;;;;;5.97;3.53;;;;;;;;;;4968792;28;20305;-73
2023/09/08 11:36:46;;;;;;;7.70;3.97;;;;;;;;;;4970129;28;20636;-72
2023/09/08 11:39:11;;;;;;;9.20;3.40;;;;;;;;;;4974385;28;20015;-73
2023/09/08 11:41:36;;;;;;;8.18;4.18;;;;;;;;;;4966994;28;20289;-73
2023/09/08 11:44:01;;;;;;;5.27;4.30;;;;;;;;;;4963973;28;20078;-73
2023/09/08 11:46:27;;;;;;;5.47;3.80;;;;;;;;;;4968115;28;20462;-73
2023/09/08 11:48:52;;;;;;;9.30;4.30;;;;;;;;;;4974453;28;20026;-72
2023/09/08 11:51:22;;;;;;;5.63;4.00;;;;;;;;;;4963783;28;20270;-72
2023/09/08 11:53:47;;;;;;;;;;;;;;;;;;4960823;28;20022;-72
2023/09/08 11:56:12;;;;;;;5.75;3.55;;;;;;;;;;4973190;28;19910;-72
2023/09/08 11:58:37;;;;;;;5.30;3.20;;;;;;;;;;4955091;28;20043;-72
2023/09/08 12:01:03;;;;;;;5.07;3.97;;;;;;;;;;4962199;28;20110;-72
2023/09/08 12:03:28;;;;;;;5.43;3.60;;;;;;;;;;4972367;28;20123;-72
2023/09/08 12:05:54;;;;;;;7.17;3.30;;;;;;;;;;4966224;28;20600;-72
2023/09/08 12:08:20;;;;;;;5.35;3.25;;;;;;;;;;4962699;28;20362;-72
2023/09/08 12:10:45;;;;;;;10.07;4.20;;;;;;;;;;4972729;28;20027;-72
2023/09/08 12:13:10;;;;;;;4.78;3.53;;;;;;;;;;4967945;28;20012;-72
2023/09/08 12:15:35;;;;;;;4.60;3.28;;;;;;;;;;4967967;28;20397;-72
2023/09/08 12:18:01;;;;;;;4.68;3.78;;;;;;;;;;4967287;28;20030;-72
2023/09/08 12:20:27;;;;;;;4.53;2.63;;;;;;;;;;4959651;28;20113;-72
2023/09/08 12:22:53;;;;;;;6.07;4.13;;;;;;;;;;4967468;28;20477;-72
2023/09/08 12:25:18;;;;;;;6.97;3.83;;;;;;;;;;4963970;28;20117;-72
2023/09/08 12:27:44;;;;;;;9.63;3.30;;;;;;;;;;4972084;28;20270;-72
2023/09/08 12:30:16;;;;;;;10.82;3.03;;;;;;;;;;4964107;28;20102;-72
2023/09/08 12:32:41;;;;;;;5.20;3.35;;;;;;;;;;4956763;28;20029;-72
2023/09/08 12:35:06;;;;;;;6.83;4.20;;;;;;;;;;4962144;28;20027;-72
2023/09/08 12:37:33;;;;;;;13.15;4.10;;;;;;;;;;4968549;28;20050;-72
2023/09/08 12:39:58;;;;;;;6.13;3.55;;;;;;;;;;4964433;28;20026;-72
2023/09/08 12:42:29;;;;;;;9.05;3.72;;;;;;;;;;4971937;28;20029;-72
2023/09/08 12:44:54;;;;;;;4.88;3.28;;;;;;;;;;4975273;28;20044;-72
2023/09/08 12:47:19;;;;;;;6.40;3.15;;;;;;;;;;4968345;28;20018;-72
2023/09/08 12:49:44;;;;;;;4.37;3.33;;;;;;;;;;4966887;28;20386;-73
2023/09/08 12:52:10;;;;;;;6.45;2.88;;;;;;;;;;4968239;28;20618;-72
2023/09/08 12:54:35;;;;;;;7.53;3.45;;;;;;;;;;4969961;28;20045;-72
2023/09/08 12:57:01;;;;;;;5.68;3.55;;;;;;;;;;4971562;28;20058;-72
2023/09/08 12:59:26;;;;;;;8.50;3.63;;;;;;;;;;4965807;28;20037;-72
2023/09/08 13:01:51;;;;;;;9.13;4.33;;;;;;;;;;4963109;28;20585;-72
2023/09/08 13:04:16;;;;;;;9.10;3.93;;;;;;;;;;4960263;28;20027;-72
2023/09/08 13:06:41;;;;;;;5.33;3.10;;;;;;;;;;4969780;28;20270;-71
2023/09/08 13:09:08;;;;;;;8.47;3.60;;;;;;;;;;4963635;28;20470;-72
2023/09/08 13:11:33;;;;;;;9.25;3.92;;;;;;;;;;4969911;28;20019;-72
2023/09/08 13:13:58;;;;;;;6.35;3.78;;;;;;;;;;4971850;28;20092;-72
2023/09/08 13:16:24;;;;;;;5.72;3.08;;;;;;;;;;4969325;28;20034;-72
2023/09/08 13:18:49;;;;;;;5.72;3.30;;;;;;;;;;4969506;28;20383;-72
2023/09/08 13:21:14;;;;;;;9.02;3.95;;;;;;;;;;4968319;28;20105;-72
2023/09/08 13:23:39;;;;;;;10.13;3.10;;;;;;;;;;4958971;28;20303;-72
2023/09/08 13:26:05;;;;;;;4.50;2.80;;;;;;;;;;4952858;28;20755;-72
2023/09/08 13:28:30;;;;;;;6.33;3.73;;;;;;;;;;4966041;28;20338;-72
2023/09/08 13:30:55;;;;;;;7.10;3.77;;;;;;;;;;4971267;28;20030;-73
2023/09/08 13:33:20;;;;;;;8.63;3.43;;;;;;;;;;4970035;28;20043;-73
2023/09/08 13:35:45;;;;;;;6.27;3.10;;;;;;;;;;4968687;28;20030;-73
2023/09/08 13:38:11;;;;;;;7.90;3.63;;;;;;;;;;4967075;28;20500;-73
2023/09/08 13:40:36;;;;;;;9.03;4.13;;;;;;;;;;4971207;28;20054;-73
2023/09/08 13:43:01;;;;;;;9.73;3.70;;;;;;;;;;4966138;28;20153;-73
2023/09/08 13:45:26;;;;;;;7.93;4.00;;;;;;;;;;4964064;28;20019;-73
2023/09/08 13:47:51;;;;;;;8.03;3.83;;;;;;;;;;4966222;28;20488;-72
2023/09/08 13:50:17;;;;;;;7.43;3.90;;;;;;;;;;4967358;28;20293;-73
2023/09/08 13:52:43;;;;;;;5.03;3.42;;;;;;;;;;4962760;28;20019;-73
2023/09/08 13:55:08;;;;;;;8.77;3.88;;;;;;;;;;4964071;28;20034;-73
2023/09/08 13:57:33;;;;;;;8.57;3.58;;;;;;;;;;4963908;28;20026;-73
2023/09/08 13:59:59;;;;;;;11.70;3.67;;;;;;;;;;4967780;28;20653;-73
2023/09/08 14:02:24;;;;;;;7.13;3.83;;;;;;;;;;4970073;28;20036;-73
2023/09/08 14:04:49;;;;;;;5.15;3.17;;;;;;;;;;4970324;28;20021;-73
2023/09/08 14:07:14;;;;;;;8.17;3.67;;;;;;;;;;4962791;28;20050;-73
2023/09/08 14:09:40;;;;;;;5.07;3.33;;;;;;;;;;4965739;28;20026;-72
2023/09/08 14:12:05;;;;;;;6.03;3.63;;;;;;;;;;4973419;28;20780;-72
2023/09/08 14:14:30;;;;;;;5.05;3.42;;;;;;;;;;4971095;28;20097;-72
2023/09/08 14:16:55;;;;;;;6.57;3.73;;;;;;;;;;4971337;28;20383;-72
2023/09/08 14:19:20;;;;;;;10.33;3.17;;;;;;;;;;4971629;28;20035;-72
2023/09/08 14:21:46;;;;;;;7.93;3.63;;;;;;;;;;4963726;28;20054;-72
2023/09/08 14:24:11;;;;;;;6.38;3.58;;;;;;;;;;4970411;28;20022;-72
2023/09/08 14:26:36;;;;;;;7.17;3.33;;;;;;;;;;4957766;28;20023;-72
2023/09/08 14:29:02;;;;;;;5.40;3.53;;;;;;;;;;4970263;28;20262;-72